Time;durP1;ratioP1;P1;durP2;ratioP2;P2;SDS_P1;SDS_P2;PMS_P1;PMS_P2;Temp;Humidity;BMP_temperature;BMP_pressure;BME280_temperature;BME280_humidity;BME280_pressure;Samples;Min_cycle;Max_cycle;Signal;HPM_P1;HPM_P2
2021/05/15 00:01:42;;;;;;;1.07;0.60;;;13.30;99.90;;;;;;5024394;28;20565;-79
2021/05/15 00:04:08;;;;;;;3.50;0.60;;;13.40;99.90;;;;;;5027190;28;20487;-78
2021/05/15 00:06:35;;;;;;;0.93;0.73;;;13.50;99.90;;;;;;5030887;28;20887;-80
2021/05/15 00:09:03;;;;;;;1.13;0.60;;;13.40;99.90;;;;;;5022487;28;21148;-79
2021/05/15 00:11:30;;;;;;;0.50;0.50;;;13.20;99.90;;;;;;5027563;28;20513;-79
2021/05/15 00:13:58;;;;;;;0.60;0.60;;;13.30;99.90;;;;;;5025433;28;20467;-80
2021/05/15 00:16:24;;;;;;;0.60;0.60;;;13.40;99.90;;;;;;5024306;28;20494;-78
2021/05/15 00:18:51;;;;;;;0.70;0.60;;;13.50;99.90;;;;;;5032489;28;20508;-78
2021/05/15 00:21:17;;;;;;;0.67;0.60;;;13.50;99.90;;;;;;5024210;28;20477;-75
2021/05/15 00:23:44;;;;;;;1.43;0.77;;;13.40;99.90;;;;;;5030314;28;20457;-76
2021/05/15 00:26:12;;;;;;;0.70;0.60;;;13.40;99.90;;;;;;5031865;28;20555;-74
2021/05/15 00:28:39;;;;;;;0.77;0.70;;;13.30;99.90;;;;;;5027799;28;20510;-76
2021/05/15 00:31:06;;;;;;;0.60;0.60;;;13.30;99.90;;;;;;5029294;28;20570;-78
2021/05/15 00:33:33;;;;;;;1.00;0.60;;;13.20;99.90;;;;;;5031436;28;20459;-76
2021/05/15 00:35:59;;;;;;;0.70;0.70;;;13.20;99.90;;;;;;5030179;28;20451;-79
2021/05/15 00:38:26;;;;;;;0.60;0.60;;;13.30;99.90;;;;;;5030258;28;20474;-78
2021/05/15 00:40:53;;;;;;;0.60;0.50;;;13.10;99.90;;;;;;5031794;28;20480;-76
2021/05/15 00:43:19;;;;;;;0.63;0.63;;;13.10;99.90;;;;;;5029813;28;20539;-76
2021/05/15 00:45:46;;;;;;;0.80;0.60;;;13.00;99.90;;;;;;5027980;28;20473;-76
2021/05/15 00:48:14;;;;;;;0.83;0.60;;;12.90;99.90;;;;;;5028341;28;20923;-78
2021/05/15 00:50:41;;;;;;;0.50;0.50;;;12.80;99.90;;;;;;5030820;28;20445;-76
2021/05/15 00:53:08;;;;;;;1.30;0.50;;;12.60;99.90;;;;;;5031632;28;20559;-76
2021/05/15 00:55:36;;;;;;;0.60;0.60;;;12.50;99.90;;;;;;5032611;28;20451;-75
2021/05/15 00:58:03;;;;;;;0.60;0.50;;;12.60;99.90;;;;;;5030270;28;20580;-79
2021/05/15 01:00:31;;;;;;;0.70;0.60;;;12.70;99.90;;;;;;5027722;28;20487;-76
2021/05/15 01:02:58;;;;;;;1.10;0.70;;;12.70;99.90;;;;;;5027387;28;20472;-78
2021/05/15 01:05:25;;;;;;;0.70;0.70;;;12.70;99.90;;;;;;5028917;28;21446;-78
2021/05/15 01:07:52;;;;;;;1.10;1.00;;;12.70;99.90;;;;;;5060908;28;20444;-77
2021/05/15 01:10:19;;;;;;;1.50;0.90;;;12.70;99.90;;;;;;5027098;28;20458;-78
2021/05/15 01:12:51;;;;;;;2.23;1.10;;;12.60;99.90;;;;;;5028814;28;20483;-77
2021/05/15 01:15:19;;;;;;;1.00;0.90;;;12.50;99.90;;;;;;5018973;28;20841;-76
2021/05/15 01:17:50;;;;;;;1.60;1.00;;;12.40;99.90;;;;;;5028538;28;21087;-76
2021/05/15 01:20:17;;;;;;;0.70;0.70;;;12.30;99.90;;;;;;5027393;28;20477;-78
2021/05/15 01:22:45;;;;;;;1.30;0.70;;;12.30;99.90;;;;;;5032025;28;20568;-76
2021/05/15 01:25:13;;;;;;;1.27;0.90;;;12.40;99.90;;;;;;5051149;28;20480;-80
2021/05/15 01:27:39;;;;;;;2.60;0.90;;;12.60;99.90;;;;;;5029940;28;20465;-81
2021/05/15 01:30:08;;;;;;;0.90;0.80;;;12.60;99.90;;;;;;5030944;28;20464;-80
2021/05/15 01:32:38;;;;;;;0.90;0.80;;;12.60;99.90;;;;;;5027615;28;20574;-78
2021/05/15 01:35:06;;;;;;;1.03;0.70;;;12.60;99.90;;;;;;5031919;28;20456;-79
2021/05/15 01:37:33;;;;;;;0.77;0.60;;;12.60;99.90;;;;;;5030895;28;20471;-78
2021/05/15 01:40:00;;;;;;;0.80;0.60;;;12.50;99.90;;;;;;5060844;28;20463;-78
2021/05/15 01:42:27;;;;;;;0.60;0.60;;;12.60;99.90;;;;;;5025412;28;20474;-77
2021/05/15 01:44:53;;;;;;;1.80;0.70;;;12.50;99.90;;;;;;5029565;28;20545;-78
2021/05/15 01:47:19;;;;;;;0.60;0.57;;;12.50;99.90;;;;;;5027118;28;20450;-77
2021/05/15 01:49:48;;;;;;;0.70;0.70;;;12.40;99.90;;;;;;5027823;28;21273;-77
2021/05/15 01:52:15;;;;;;;1.00;0.60;;;12.30;99.90;;;;;;5028107;28;20486;-75
2021/05/15 01:54:41;;;;;;;0.70;0.70;;;12.30;99.90;;;;;;5032501;28;20472;-75
2021/05/15 01:57:09;;;;;;;0.80;0.70;;;12.50;99.90;;;;;;5031150;28;20474;-75
2021/05/15 01:59:36;;;;;;;0.70;0.50;;;12.40;99.90;;;;;;5028230;28;20458;-78
2021/05/15 02:02:03;;;;;;;0.50;0.50;;;12.20;99.90;;;;;;5024073;28;20502;-76
2021/05/15 02:04:29;;;;;;;0.60;0.60;;;12.20;99.90;;;;;;5026037;28;20459;-75
2021/05/15 02:06:56;;;;;;;1.17;0.60;;;12.10;99.90;;;;;;5043345;28;21255;-76
2021/05/15 02:09:22;;;;;;;0.80;0.70;;;12.10;99.90;;;;;;5029794;28;20453;-78
2021/05/15 02:11:49;;;;;;;0.63;0.60;;;12.20;99.90;;;;;;5026667;28;20491;-77
2021/05/15 02:14:16;;;;;;;0.80;0.60;;;12.20;99.90;;;;;;5029966;28;20454;-78
2021/05/15 02:16:43;;;;;;;0.80;0.60;;;12.30;99.90;;;;;;5022448;28;20491;-79
2021/05/15 02:19:10;;;;;;;0.90;0.90;;;12.40;99.90;;;;;;5025680;28;20453;-79
2021/05/15 02:21:37;;;;;;;0.60;0.60;;;12.30;99.90;;;;;;5020612;28;20474;-78
2021/05/15 02:24:04;;;;;;;0.50;0.50;;;12.40;99.90;;;;;;5030895;28;21071;-79
2021/05/15 02:26:31;;;;;;;0.60;0.60;;;12.50;99.90;;;;;;5025958;28;20776;-79
2021/05/15 02:28:57;;;;;;;0.70;0.70;;;12.40;99.90;;;;;;5030573;28;20457;-82
2021/05/15 02:31:25;;;;;;;0.80;0.60;;;12.20;99.90;;;;;;5032417;28;20834;-80
2021/05/15 02:33:51;;;;;;;0.67;0.63;;;12.30;99.90;;;;;;5028837;28;20470;-77
2021/05/15 02:36:18;;;;;;;1.07;0.70;;;12.40;99.90;;;;;;5030645;28;21035;-77
2021/05/15 02:38:44;;;;;;;0.70;0.60;;;12.20;99.90;;;;;;5032779;28;20875;-79
2021/05/15 02:41:11;;;;;;;0.60;0.60;;;12.20;99.90;;;;;;5032158;28;21199;-80
2021/05/15 02:43:37;;;;;;;0.93;0.60;;;12.10;99.90;;;;;;5029535;28;20449;-80
2021/05/15 02:46:03;;;;;;;1.37;0.50;;;12.20;99.90;;;;;;5026859;28;21023;-79
2021/05/15 02:48:31;;;;;;;0.70;0.70;;;12.20;99.90;;;;;;5033436;28;20445;-79
2021/05/15 02:50:57;;;;;;;0.83;0.80;;;12.40;99.90;;;;;;5031887;28;20477;-77
2021/05/15 02:53:24;;;;;;;0.97;0.70;;;12.40;99.90;;;;;;5030154;28;20462;-77
2021/05/15 02:55:50;;;;;;;0.70;0.70;;;12.50;99.90;;;;;;5028863;28;20479;-81
2021/05/15 02:58:18;;;;;;;0.70;0.70;;;12.60;99.90;;;;;;5023817;28;20504;-77
2021/05/15 03:00:44;;;;;;;1.90;0.70;;;12.70;99.90;;;;;;5029221;28;20510;-74
2021/05/15 03:03:11;;;;;;;1.17;0.70;;;12.50;99.90;;;;;;5031016;28;20512;-78
2021/05/15 03:05:38;;;;;;;2.00;0.70;;;12.40;99.90;;;;;;5029337;28;20454;-78
2021/05/15 03:08:05;;;;;;;2.77;0.60;;;12.50;99.90;;;;;;5029159;28;20469;-75
2021/05/15 03:10:32;;;;;;;1.23;0.60;;;12.40;99.90;;;;;;5056476;28;20542;-77
2021/05/15 03:12:58;;;;;;;1.13;0.70;;;12.40;99.90;;;;;;5029186;28;20542;-77
2021/05/15 03:15:25;;;;;;;0.80;0.80;;;12.30;99.90;;;;;;5030905;28;22288;-78
2021/05/15 03:17:52;;;;;;;1.30;0.80;;;12.20;99.90;;;;;;5030781;28;20477;-77
2021/05/15 03:20:22;;;;;;;0.77;0.70;;;12.00;99.90;;;;;;5028837;28;20464;-78
2021/05/15 03:22:50;;;;;;;0.70;0.70;;;12.00;99.90;;;;;;5027434;28;20527;-76
2021/05/15 03:25:18;;;;;;;0.90;0.73;;;12.10;99.90;;;;;;5043800;28;20994;-77
2021/05/15 03:27:44;;;;;;;1.10;0.80;;;12.20;99.90;;;;;;5029458;28;20467;-75
2021/05/15 03:30:13;;;;;;;0.70;0.70;;;12.10;99.90;;;;;;5034503;28;20469;-78
2021/05/15 03:32:40;;;;;;;0.77;0.77;;;12.20;99.90;;;;;;5028379;28;20845;-76
2021/05/15 03:35:08;;;;;;;0.70;0.70;;;12.40;99.90;;;;;;5030274;28;20470;-78
2021/05/15 03:37:35;;;;;;;0.70;0.70;;;12.30;99.90;;;;;;5028891;28;20649;-79
2021/05/15 03:40:03;;;;;;;1.10;1.10;;;12.20;99.90;;;;;;5026591;28;20470;-76
2021/05/15 03:42:29;;;;;;;0.67;0.67;;;12.20;99.90;;;;;;5026304;28;20495;-75
2021/05/15 03:44:56;;;;;;;1.00;0.77;;;12.10;99.90;;;;;;5032286;28;20484;-77
2021/05/15 03:47:22;;;;;;;0.70;0.70;;;12.20;99.90;;;;;;5026613;28;20463;-80
2021/05/15 03:49:49;;;;;;;0.70;0.70;;;12.10;99.90;;;;;;5030288;28;20470;-76
2021/05/15 03:52:15;;;;;;;0.80;0.60;;;11.90;99.90;;;;;;5037736;28;20492;-77
2021/05/15 03:54:42;;;;;;;0.60;0.60;;;11.60;99.90;;;;;;5032396;28;20472;-78
2021/05/15 03:57:09;;;;;;;0.93;0.70;;;11.70;99.90;;;;;;5031575;28;20485;-78
2021/05/15 03:59:36;;;;;;;0.70;0.70;;;12.00;99.90;;;;;;5024708;28;20473;-77
2021/05/15 04:02:03;;;;;;;2.27;0.83;;;12.10;99.90;;;;;;5029710;28;20515;-79
2021/05/15 04:04:29;;;;;;;1.37;0.70;;;12.20;99.90;;;;;;5025522;28;20473;-79
2021/05/15 04:06:56;;;;;;;1.70;0.77;;;12.10;99.90;;;;;;5032518;28;20457;-81
2021/05/15 04:09:22;;;;;;;0.60;0.60;;;12.20;99.90;;;;;;5024487;28;20900;-79
2021/05/15 04:11:49;;;;;;;0.70;0.70;;;12.20;99.90;;;;;;5023553;28;20490;-79
2021/05/15 04:14:33;;;;;;;1.90;0.77;;;12.10;99.90;;;;;;5027807;28;20542;-78
2021/05/15 04:17:16;;;;;;;0.60;0.60;;;12.10;99.90;;;;;;5026176;28;20492;-79
2021/05/15 04:19:43;;;;;;;0.80;0.80;;;12.10;99.90;;;;;;5025212;28;20498;-79
2021/05/15 04:22:09;;;;;;;0.60;0.60;;;12.00;99.90;;;;;;5026526;28;20488;-80
2021/05/15 04:24:36;;;;;;;1.17;0.70;;;12.10;99.90;;;;;;5030424;28;20470;-80
2021/05/15 04:27:05;;;;;;;1.30;0.77;;;12.10;99.90;;;;;;5046126;28;20531;-80
2021/05/15 04:29:33;;;;;;;0.83;0.70;;;11.90;99.90;;;;;;5028529;28;20454;-81
2021/05/15 04:32:00;;;;;;;2.30;0.77;;;11.80;99.90;;;;;;5023635;28;20541;-77
2021/05/15 04:34:29;;;;;;;0.90;0.90;;;11.60;99.90;;;;;;5031463;28;20518;-80
2021/05/15 04:36:56;;;;;;;1.50;0.83;;;11.70;99.90;;;;;;5023900;28;20495;-79
2021/05/15 04:39:23;;;;;;;0.80;0.80;;;11.60;99.90;;;;;;5024588;28;20469;-81
2021/05/15 04:41:50;;;;;;;2.53;0.70;;;11.80;99.90;;;;;;5031818;28;20482;-77
2021/05/15 04:44:16;;;;;;;0.70;0.70;;;12.10;99.90;;;;;;5027939;28;20526;-76
2021/05/15 04:46:43;;;;;;;0.80;0.80;;;12.20;99.90;;;;;;5027595;28;20470;-76
2021/05/15 04:49:10;;;;;;;0.73;0.70;;;12.30;99.90;;;;;;5025068;28;20466;-78
2021/05/15 04:51:37;;;;;;;0.63;0.63;;;12.30;99.90;;;;;;5027431;28;20519;-76
2021/05/15 04:54:04;;;;;;;0.70;0.70;;;12.30;99.90;;;;;;5028079;28;20846;-77
2021/05/15 04:56:31;;;;;;;0.70;0.70;;;12.20;99.90;;;;;;5028221;28;22640;-76
2021/05/15 04:58:57;;;;;;;1.53;0.60;;;12.30;99.90;;;;;;5025249;28;20541;-75
2021/05/15 05:01:24;;;;;;;0.60;0.60;;;12.40;99.90;;;;;;5026886;28;22684;-78
2021/05/15 05:03:51;;;;;;;1.30;0.73;;;12.30;99.90;;;;;;5026490;28;20457;-77
2021/05/15 05:06:19;;;;;;;0.90;0.70;;;12.30;99.90;;;;;;5027819;28;21162;-78
2021/05/15 05:08:45;;;;;;;1.27;0.73;;;12.20;99.90;;;;;;5027361;28;20463;-77
2021/05/15 05:11:12;;;;;;;0.60;0.60;;;12.10;99.90;;;;;;5019225;28;20494;-75
2021/05/15 05:13:38;;;;;;;0.60;0.60;;;12.30;99.90;;;;;;5007893;28;20464;-79
2021/05/15 05:16:05;;;;;;;1.80;0.77;;;12.60;99.90;;;;;;5010623;28;21211;-76
2021/05/15 05:18:32;;;;;;;0.70;0.60;;;12.80;99.90;;;;;;5010997;28;20596;-76
2021/05/15 05:21:01;;;;;;;0.70;0.70;;;12.90;99.90;;;;;;5016335;28;20484;-77
2021/05/15 05:23:27;;;;;;;1.80;0.80;;;12.90;99.90;;;;;;5019376;28;20506;-77
2021/05/15 05:25:54;;;;;;;0.60;0.60;;;13.00;99.90;;;;;;5017339;28;20525;-76
2021/05/15 05:28:24;;;;;;;1.43;0.50;;;12.90;99.90;;;;;;5022793;28;20455;-75
2021/05/15 05:30:50;;;;;;;0.90;0.70;;;12.90;99.90;;;;;;5020201;28;20621;-78
2021/05/15 05:33:17;;;;;;;0.57;0.57;;;12.90;99.90;;;;;;5023413;28;20333;-80
2021/05/15 05:35:44;;;;;;;0.70;0.70;;;13.00;99.90;;;;;;5024857;28;20466;-79
2021/05/15 05:38:11;;;;;;;0.70;0.70;;;12.80;99.90;;;;;;5026312;28;20863;-76
2021/05/15 05:40:38;;;;;;;0.70;0.60;;;12.60;99.90;;;;;;5019255;28;20465;-76
2021/05/15 05:43:04;;;;;;;0.57;0.57;;;12.60;99.90;;;;;;5015114;28;20504;-76
2021/05/15 05:45:31;;;;;;;0.60;0.60;;;12.70;99.90;;;;;;5012443;28;20591;-75
2021/05/15 05:47:57;;;;;;;0.63;0.63;;;12.30;99.90;;;;;;5019000;28;21048;-78
2021/05/15 05:50:24;;;;;;;1.42;0.70;;;12.30;99.90;;;;;;5014211;28;20480;-77
2021/05/15 05:52:50;;;;;;;1.20;0.60;;;12.40;99.90;;;;;;5026351;28;21075;-77
2021/05/15 05:55:18;;;;;;;1.10;0.50;;;12.40;99.90;;;;;;5029279;28;20465;-75
2021/05/15 05:57:44;;;;;;;0.80;0.60;;;12.30;99.90;;;;;;5017197;28;20774;-76
2021/05/15 06:00:12;;;;;;;1.97;0.80;;;12.20;99.90;;;;;;5016469;28;20216;-75
2021/05/15 06:02:39;;;;;;;0.97;0.63;;;12.20;99.90;;;;;;5021471;28;21084;-75
2021/05/15 06:05:06;;;;;;;0.50;0.50;;;12.30;99.90;;;;;;5017228;28;20470;-77
2021/05/15 06:07:33;;;;;;;1.13;0.60;;;12.20;99.90;;;;;;5021340;28;20957;-76
2021/05/15 06:10:00;;;;;;;0.60;0.60;;;12.30;99.90;;;;;;5051925;28;20498;-75
2021/05/15 06:12:27;;;;;;;0.80;0.70;;;12.50;99.90;;;;;;5022251;28;20491;-76
2021/05/15 06:14:54;;;;;;;0.63;0.60;;;12.30;99.90;;;;;;5024149;28;21041;-77
2021/05/15 06:17:20;;;;;;;1.37;0.70;;;12.40;99.90;;;;;;5025826;28;20473;-75
2021/05/15 06:19:47;;;;;;;1.00;0.70;;;12.60;99.90;;;;;;5027745;28;21122;-76
2021/05/15 06:22:14;;;;;;;1.00;0.70;;;12.80;99.90;;;;;;5026858;28;20497;-78
2021/05/15 06:24:40;;;;;;;1.83;0.60;;;12.90;99.90;;;;;;5025166;28;20471;-76
2021/05/15 06:27:07;;;;;;;0.60;0.60;;;13.00;99.90;;;;;;5025895;28;20690;-76
2021/05/15 06:29:35;;;;;;;0.60;0.60;;;12.70;99.90;;;;;;5023822;28;20542;-79
2021/05/15 06:32:02;;;;;;;1.03;0.70;;;12.90;99.90;;;;;;5027745;28;20486;-77
2021/05/15 06:34:29;;;;;;;0.80;0.60;;;12.90;99.90;;;;;;5033007;28;20461;-80
2021/05/15 06:36:55;;;;;;;0.60;0.60;;;13.00;99.90;;;;;;5033722;28;20477;-79
2021/05/15 06:39:22;;;;;;;0.80;0.70;;;13.10;99.90;;;;;;5032830;28;20827;-84
2021/05/15 06:41:49;;;;;;;0.97;0.60;;;13.00;99.90;;;;;;5020129;28;20476;-78
2021/05/15 06:44:15;;;;;;;0.77;0.60;;;13.00;99.90;;;;;;5030137;28;20472;-82
2021/05/15 06:46:43;;;;;;;0.60;0.60;;;13.10;99.90;;;;;;5024565;28;20464;-85
2021/05/15 06:49:09;;;;;;;1.63;0.60;;;13.30;99.90;;;;;;5032799;28;20542;-78
2021/05/15 06:51:36;;;;;;;1.40;0.80;;;13.20;99.90;;;;;;5031902;28;20476;-79
2021/05/15 06:54:03;;;;;;;0.60;0.60;;;13.20;99.90;;;;;;5026122;28;20469;-83
2021/05/15 06:56:29;;;;;;;0.70;0.70;;;13.00;99.90;;;;;;5023327;28;21000;-82
2021/05/15 06:58:55;;;;;;;1.43;0.60;;;12.90;99.90;;;;;;5030894;28;22443;-84
2021/05/15 07:01:22;;;;;;;0.93;0.90;;;12.90;99.90;;;;;;5032466;28;20567;-82
2021/05/15 07:03:50;;;;;;;0.80;0.80;;;12.90;99.90;;;;;;5020271;28;20457;-82
2021/05/15 07:06:16;;;;;;;0.60;0.60;;;12.90;99.90;;;;;;5023487;28;20470;-84
2021/05/15 07:08:43;;;;;;;1.23;0.60;;;13.00;99.90;;;;;;5025331;28;20453;-78
2021/05/15 07:11:09;;;;;;;0.80;0.70;;;12.90;99.90;;;;;;5030778;28;20569;-81
2021/05/15 07:13:36;;;;;;;1.03;0.73;;;13.00;99.90;;;;;;5030631;28;20913;-73
2021/05/15 07:16:02;;;;;;;1.07;0.60;;;13.00;99.90;;;;;;5024165;28;20548;-75
2021/05/15 07:18:29;;;;;;;1.33;0.60;;;13.10;99.90;;;;;;5020281;28;20557;-74
2021/05/15 07:20:56;;;;;;;0.60;0.60;;;13.30;99.90;;;;;;5019783;28;20526;-72
2021/05/15 07:23:23;;;;;;;1.17;1.07;;;13.40;99.90;;;;;;5014274;28;20582;-73
2021/05/15 07:25:49;;;;;;;0.57;0.50;;;13.60;99.90;;;;;;5020462;28;20469;-73
2021/05/15 07:28:16;;;;;;;1.53;0.70;;;13.70;99.90;;;;;;5019513;28;20456;-80
2021/05/15 07:30:42;;;;;;;0.70;0.70;;;13.70;99.90;;;;;;5027497;28;20476;-79
2021/05/15 07:33:11;;;;;;;0.90;0.70;;;13.70;99.90;;;;;;5030581;28;20538;-79
2021/05/15 07:35:38;;;;;;;0.73;0.73;;;13.70;99.90;;;;;;5026155;28;20472;-78
2021/05/15 07:38:06;;;;;;;1.20;1.10;;;13.80;99.90;;;;;;5023130;28;20459;-79
2021/05/15 07:40:32;;;;;;;0.60;0.60;;;13.60;99.90;;;;;;5023099;28;20573;-80
2021/05/15 07:42:59;;;;;;;1.50;0.63;;;13.50;99.90;;;;;;5022288;28;20482;-77
2021/05/15 07:45:26;;;;;;;0.63;0.60;;;13.40;99.90;;;;;;5020523;28;20473;-76
2021/05/15 07:47:52;;;;;;;0.70;0.60;;;13.40;99.90;;;;;;5024141;28;20492;-79
2021/05/15 07:50:19;;;;;;;0.80;0.60;;;13.20;99.90;;;;;;5037792;28;20474;-80
2021/05/15 07:52:46;;;;;;;0.70;0.70;;;13.20;99.90;;;;;;5032719;28;20560;-77
2021/05/15 07:55:13;;;;;;;0.67;0.67;;;13.40;99.90;;;;;;5032956;28;20543;-76
2021/05/15 07:57:40;;;;;;;0.60;0.60;;;13.40;99.90;;;;;;5023029;28;20485;-79
2021/05/15 08:00:07;;;;;;;0.70;0.60;;;13.20;99.90;;;;;;5037542;28;20497;-78
2021/05/15 08:02:34;;;;;;;1.63;0.70;;;13.30;99.90;;;;;;5032555;28;20623;-80
2021/05/15 08:05:01;;;;;;;0.70;0.70;;;13.50;99.90;;;;;;5031986;28;20480;-78
2021/05/15 08:07:29;;;;;;;1.43;0.60;;;13.30;99.90;;;;;;5031991;28;20466;-78
2021/05/15 08:09:56;;;;;;;1.83;0.70;;;13.40;99.90;;;;;;5028342;28;20455;-77
2021/05/15 08:12:23;;;;;;;0.80;0.70;;;13.40;99.90;;;;;;5031845;28;20486;-79
2021/05/15 08:14:50;;;;;;;0.73;0.73;;;13.50;99.90;;;;;;5023048;28;20458;-79
2021/05/15 08:17:16;;;;;;;1.60;1.50;;;13.70;99.90;;;;;;5017241;28;20456;-77
2021/05/15 08:19:43;;;;;;;0.77;0.70;;;13.80;99.90;;;;;;5026264;28;20327;-78
2021/05/15 08:22:09;;;;;;;1.80;0.70;;;13.60;99.90;;;;;;5026645;28;20473;-80
2021/05/15 08:24:36;;;;;;;0.60;0.60;;;13.60;99.90;;;;;;5025549;28;20459;-79
2021/05/15 08:27:03;;;;;;;1.47;0.60;;;13.70;99.90;;;;;;5024551;28;20464;-79
2021/05/15 08:29:32;;;;;;;1.20;0.70;;;13.70;99.90;;;;;;5059562;28;20517;-79
2021/05/15 08:32:00;;;;;;;1.10;0.70;;;13.90;99.90;;;;;;5020973;28;20484;-79
2021/05/15 08:34:27;;;;;;;0.90;0.70;;;14.00;99.90;;;;;;5030830;28;20201;-80
2021/05/15 08:36:53;;;;;;;1.53;0.80;;;14.10;99.90;;;;;;5028212;28;20477;-80
2021/05/15 08:39:20;;;;;;;0.70;0.70;;;13.80;99.90;;;;;;5029077;28;20453;-80
2021/05/15 08:41:46;;;;;;;0.87;0.70;;;13.90;99.90;;;;;;5025732;28;20499;-78
2021/05/15 08:44:14;;;;;;;0.93;0.80;;;13.90;99.90;;;;;;5023675;28;20518;-79
2021/05/15 08:46:44;;;;;;;1.00;0.70;;;14.00;99.90;;;;;;5025948;28;20471;-77
2021/05/15 08:49:14;;;;;;;0.90;0.70;;;14.10;99.90;;;;;;5028308;28;20481;-78
2021/05/15 08:51:42;;;;;;;0.80;0.80;;;14.10;99.90;;;;;;5016984;28;20485;-78
2021/05/15 08:54:09;;;;;;;0.80;0.80;;;14.10;99.90;;;;;;5020024;28;20470;-77
2021/05/15 08:56:36;;;;;;;0.60;0.60;;;14.10;99.90;;;;;;5022433;28;20475;-78
2021/05/15 08:59:03;;;;;;;1.27;0.50;;;14.20;99.90;;;;;;5021308;28;20470;-80
2021/05/15 09:01:30;;;;;;;3.10;0.70;;;14.40;99.90;;;;;;5018378;28;20474;-80
2021/05/15 09:03:57;;;;;;;0.80;0.70;;;14.30;99.90;;;;;;5021627;28;20995;-79
2021/05/15 09:06:25;;;;;;;0.70;0.70;;;14.30;99.90;;;;;;5016530;28;20460;-75
2021/05/15 09:08:53;;;;;;;0.70;0.70;;;14.30;99.90;;;;;;5020199;28;21209;-79
2021/05/15 09:11:20;;;;;;;0.70;0.60;;;14.30;99.90;;;;;;5052841;28;20475;-78
2021/05/15 09:13:53;;;;;;;2.73;1.40;;;14.20;99.90;;;;;;5028631;28;20457;-79
2021/05/15 09:16:21;;;;;;;1.30;0.90;;;14.20;99.90;;;;;;5024006;28;20469;-77
2021/05/15 09:18:49;;;;;;;0.73;0.73;;;14.40;99.90;;;;;;5035307;28;20469;-78
2021/05/15 09:21:21;;;;;;;0.70;0.70;;;14.50;99.90;;;;;;5025019;28;21001;-78
2021/05/15 09:23:50;;;;;;;0.80;0.60;;;14.60;99.90;;;;;;5027277;28;20870;-78
2021/05/15 09:26:20;;;;;;;1.03;0.70;;;14.80;99.90;;;;;;5024413;28;20528;-79
2021/05/15 09:28:50;;;;;;;0.77;0.60;;;14.90;99.90;;;;;;5021199;28;20519;-78
2021/05/15 09:31:23;;;;;;;1.13;0.70;;;14.80;99.90;;;;;;5025934;28;20229;-79
2021/05/15 09:33:52;;;;;;;0.80;0.80;;;15.00;99.90;;;;;;5032368;28;20962;-80
2021/05/15 09:36:23;;;;;;;3.23;0.80;;;14.90;99.90;;;;;;5030219;28;20459;-79
2021/05/15 09:39:09;;;;;;;0.80;0.70;;;14.90;99.90;;;;;;5025568;28;20486;-78
2021/05/15 09:41:40;;;;;;;1.63;0.80;;;15.10;99.90;;;;;;5031478;28;20963;-80
2021/05/15 09:44:09;;;;;;;1.27;0.70;;;15.10;99.90;;;;;;5027586;28;20214;-79
2021/05/15 09:46:39;;;;;;;0.70;0.70;;;15.10;99.90;;;;;;5057046;28;20554;-74
2021/05/15 09:49:08;;;;;;;1.10;0.70;;;15.10;99.90;;;;;;5023711;28;20503;-81
2021/05/15 09:51:38;;;;;;;2.25;0.90;;;15.10;99.90;;;;;;5024683;28;20451;-80
2021/05/15 09:54:14;;;;;;;0.97;0.60;;;15.20;99.90;;;;;;5032947;28;20211;-80
2021/05/15 09:56:42;;;;;;;1.13;0.77;;;15.20;99.90;;;;;;5031058;28;20439;-82
2021/05/15 09:59:11;;;;;;;1.13;0.73;;;14.90;99.90;;;;;;5027423;28;20985;-81
2021/05/15 10:01:41;;;;;;;0.90;0.60;;;14.90;99.90;;;;;;5035336;28;20478;-81
2021/05/15 10:04:09;;;;;;;1.83;0.70;;;15.00;99.90;;;;;;5036234;28;20452;-82
2021/05/15 10:06:37;;;;;;;1.37;0.60;;;15.00;99.90;;;;;;5030722;28;20466;-82
2021/05/15 10:09:05;;;;;;;0.60;0.60;;;15.10;99.90;;;;;;5030540;28;20461;-81
2021/05/15 10:11:35;;;;;;;1.07;0.67;;;15.20;99.90;;;;;;5031588;28;20482;-79
2021/05/15 10:14:04;;;;;;;0.97;0.70;;;15.20;99.90;;;;;;5032423;28;21026;-81
2021/05/15 10:16:32;;;;;;;1.02;0.70;;;15.40;99.90;;;;;;5024284;28;20449;-78
2021/05/15 10:19:00;;;;;;;0.70;0.70;;;15.20;99.90;;;;;;5032055;28;20210;-80
2021/05/15 10:21:28;;;;;;;1.93;0.70;;;15.30;99.90;;;;;;5028604;28;20483;-79
2021/05/15 10:23:56;;;;;;;1.33;0.60;;;15.40;99.90;;;;;;5025672;28;20456;-78
2021/05/15 10:26:24;;;;;;;0.80;0.60;;;15.60;99.90;;;;;;5060054;28;20469;-79
2021/05/15 10:29:04;;;;;;;0.77;0.73;;;15.70;99.90;;;;;;5025096;28;20797;-80
2021/05/15 10:31:37;;;;;;;1.20;0.70;;;15.80;99.90;;;;;;5033598;28;20476;-80
2021/05/15 10:34:05;;;;;;;3.30;0.67;;;15.80;99.90;;;;;;5031897;28;20888;-79
2021/05/15 10:36:44;;;;;;;1.77;0.70;;;15.90;99.90;;;;;;5029081;28;20460;-79
2021/05/15 10:39:24;;;;;;;1.47;0.70;;;16.00;99.90;;;;;;5030003;28;20465;-80
2021/05/15 10:41:52;;;;;;;0.77;0.70;;;16.00;99.90;;;;;;5028272;28;20453;-81
2021/05/15 10:44:19;;;;;;;0.87;0.80;;;16.00;99.90;;;;;;5028184;28;20193;-79
2021/05/15 10:46:49;;;;;;;1.37;0.80;;;16.10;99.90;;;;;;5030769;28;20467;-79
2021/05/15 10:49:20;;;;;;;1.17;0.60;;;16.10;99.90;;;;;;5032028;28;20450;-78
2021/05/15 10:51:50;;;;;;;3.30;0.77;;;16.00;99.90;;;;;;5023796;28;20484;-79
2021/05/15 10:54:30;;;;;;;0.60;0.60;;;16.00;99.90;;;;;;5031645;28;20462;-80
2021/05/15 10:57:03;;;;;;;0.90;0.70;;;15.70;99.90;;;;;;5034211;28;20459;-80
2021/05/15 10:59:31;;;;;;;0.83;0.70;;;15.70;99.90;;;;;;5034042;28;21058;-80
2021/05/15 11:02:02;;;;;;;1.23;0.80;;;15.70;99.90;;;;;;5035329;28;20848;-78
2021/05/15 11:04:32;;;;;;;1.10;0.70;;;15.80;99.90;;;;;;5023410;28;20921;-80
2021/05/15 11:07:10;;;;;;;2.65;0.80;;;15.80;99.90;;;;;;5032368;28;21074;-81
2021/05/15 11:10:02;;;;;;;1.77;1.67;;;16.00;99.90;;;;;;5024938;28;20222;-79
2021/05/15 11:12:38;;;;;;;4.33;0.80;;;15.90;99.90;;;;;;5025132;28;20469;-78
2021/05/15 11:15:09;;;;;;;1.03;0.77;;;15.90;99.90;;;;;;5035395;28;20440;-81
2021/05/15 11:17:37;;;;;;;0.83;0.77;;;15.90;99.90;;;;;;5032162;28;20469;-80
2021/05/15 11:20:13;;;;;;;1.90;0.80;;;16.00;99.90;;;;;;5032073;28;20450;-81
2021/05/15 11:22:43;;;;;;;1.60;0.60;;;16.10;99.90;;;;;;5028787;28;20487;-79
2021/05/15 11:25:20;;;;;;;0.83;0.83;;;16.00;99.90;;;;;;5027027;28;20467;-79
2021/05/15 11:27:50;;;;;;;0.70;0.70;;;15.90;99.90;;;;;;5049488;28;20449;-80
2021/05/15 11:30:20;;;;;;;1.70;0.60;;;15.80;99.90;;;;;;5032775;28;20456;-80
2021/05/15 11:33:02;;;;;;;0.60;0.60;;;15.70;99.90;;;;;;5035461;28;20328;-79
2021/05/15 11:35:31;;;;;;;2.20;0.87;;;15.80;99.90;;;;;;5036438;28;20445;-79
2021/05/15 11:38:07;;;;;;;0.90;0.80;;;15.80;99.90;;;;;;5037393;28;20480;-79
2021/05/15 11:40:37;;;;;;;1.37;0.67;;;15.30;99.90;;;;;;5034512;28;20490;-79
2021/05/15 11:43:05;;;;;;;1.00;0.73;;;15.50;99.90;;;;;;5035679;28;20889;-81
2021/05/15 11:45:34;;;;;;;1.95;0.73;;;15.60;99.90;;;;;;5028919;28;20532;-79
2021/05/15 11:48:07;;;;;;;1.60;0.60;;;15.80;99.90;;;;;;5036916;28;20685;-80
2021/05/15 11:50:36;;;;;;;2.87;0.70;;;15.80;99.90;;;;;;5031601;28;20461;-79
2021/05/15 11:53:05;;;;;;;0.87;0.70;;;15.90;99.90;;;;;;5035535;28;20539;-81
2021/05/15 11:55:33;;;;;;;2.20;0.60;;;15.80;99.90;;;;;;5035480;28;20464;-82
2021/05/15 11:58:04;;;;;;;3.40;1.43;;;15.80;99.90;;;;;;5027776;28;21061;-82
2021/05/15 12:00:32;;;;;;;0.80;0.60;;;15.90;99.90;;;;;;5026528;28;20468;-83
2021/05/15 12:03:03;;;;;;;2.50;0.63;;;16.10;99.90;;;;;;5027250;28;20488;-82
2021/05/15 12:05:31;;;;;;;1.60;0.70;;;16.20;99.90;;;;;;5031277;28;20444;-80
2021/05/15 12:08:01;;;;;;;0.93;0.50;;;16.20;99.90;;;;;;5029152;28;20432;-81
2021/05/15 12:10:29;;;;;;;0.60;0.60;;;16.20;99.90;;;;;;5026542;28;20461;-80
2021/05/15 12:12:58;;;;;;;1.40;0.77;;;16.10;99.90;;;;;;5032348;28;20526;-82
2021/05/15 12:15:29;;;;;;;1.00;0.80;;;16.10;99.90;;;;;;5029677;28;20813;-80
2021/05/15 12:17:58;;;;;;;1.10;0.60;;;16.10;99.90;;;;;;5027906;28;20193;-82
2021/05/15 12:20:30;;;;;;;0.87;0.63;;;16.20;99.90;;;;;;5029684;28;20453;-83
2021/05/15 12:23:06;;;;;;;1.40;1.20;;;16.10;99.90;;;;;;5027294;28;20488;-82
2021/05/15 12:25:35;;;;;;;0.60;0.60;;;16.10;99.90;;;;;;5037687;28;20468;-84
2021/05/15 12:28:03;;;;;;;1.80;0.60;;;15.80;99.90;;;;;;5031073;28;20500;-81
2021/05/15 12:30:36;;;;;;;0.80;0.80;;;15.90;99.90;;;;;;5026270;28;20452;-82
2021/05/15 12:33:05;;;;;;;0.70;0.70;;;16.10;99.90;;;;;;5027714;28;20473;-83
2021/05/15 12:35:34;;;;;;;0.83;0.70;;;16.10;99.90;;;;;;5026461;28;20458;-84
2021/05/15 12:38:07;;;;;;;1.13;0.60;;;16.10;99.90;;;;;;5042912;28;20454;-83
2021/05/15 12:40:35;;;;;;;1.90;0.80;;;16.20;99.90;;;;;;5018463;28;20458;-81
2021/05/15 12:43:11;;;;;;;0.97;0.80;;;16.30;99.90;;;;;;5028641;28;20466;-82
2021/05/15 12:45:40;;;;;;;0.80;0.60;;;16.20;99.90;;;;;;5027938;28;20485;-81
2021/05/15 12:48:20;;;;;;;0.97;0.60;;;16.10;99.90;;;;;;5029417;28;20474;-81
2021/05/15 12:50:49;;;;;;;0.93;0.70;;;16.10;99.90;;;;;;5060834;28;20470;-81
2021/05/15 12:53:17;;;;;;;0.63;0.63;;;16.10;99.90;;;;;;5027860;28;20465;-81